AEE337 LGSA-LGAV
Flight info
| Callsign | AEE337 |
|---|---|
| Flight time | 0h 46m |
| Altitude | 26000 |
| Route | SOKRI UY151 VELOP |
| Aircraft | A320/M-SDE3FGHIRWY/LB1 |
Departure
| Time | 2026-05-05 17:25 |
|---|---|
| Airport | Chania International Airport (LGSA) |
Arrival
| Time | 2026-05-05 18:12 |
|---|---|
| Airport | Athens Eleftherios Venizelos International Airport (LGAV) |
| Time | Latitude | Longitude | Altitude | Speed | Heading |
|---|---|---|---|---|---|
| 2026-05-05 17:03 | 35.53884 | 24.14016 | 498 ft | 0 kts | 21° |
| 2026-05-05 17:04 | 35.53885 | 24.14016 | 498 ft | 0 kts | 21° |
| 2026-05-05 17:11 | 35.53884 | 24.14016 | 498 ft | 0 kts | 21° |
| 2026-05-05 17:15 | 35.53875 | 24.14011 | 490 ft | 4 kts | 21° |
| 2026-05-05 17:16 | 35.53850 | 24.13998 | 493 ft | 4 kts | 21° |
| 2026-05-05 17:16 | 35.53829 | 24.13988 | 487 ft | 3 kts | 24° |
| 2026-05-05 17:16 | 35.53813 | 24.13969 | 489 ft | 4 kts | 87° |
| 2026-05-05 17:16 | 35.53817 | 24.13939 | 493 ft | 3 kts | 111° |
| 2026-05-05 17:17 | 35.53818 | 24.13935 | 495 ft | 0 kts | 112° |
| 2026-05-05 17:18 | 35.53816 | 24.13942 | 492 ft | 2 kts | 112° |
| 2026-05-05 17:18 | 35.53805 | 24.13974 | 491 ft | 6 kts | 112° |
| 2026-05-05 17:19 | 35.53786 | 24.14032 | 491 ft | 9 kts | 112° |
| 2026-05-05 17:19 | 35.53755 | 24.14128 | 498 ft | 14 kts | 112° |
| 2026-05-05 17:19 | 35.53715 | 24.14252 | 494 ft | 17 kts | 112° |
| 2026-05-05 17:19 | 35.53663 | 24.14369 | 498 ft | 0 kts | 155° |
| 2026-05-05 17:20 | 35.53647 | 24.14363 | 491 ft | 8 kts | 195° |
| 2026-05-05 17:20 | 35.53577 | 24.14336 | 495 ft | 12 kts | 178° |
| 2026-05-05 17:20 | 35.53534 | 24.14424 | 490 ft | 14 kts | 108° |
| 2026-05-05 17:20 | 35.53493 | 24.14551 | 497 ft | 18 kts | 111° |
| 2026-05-05 17:21 | 35.53443 | 24.14703 | 496 ft | 21 kts | 112° |
| 2026-05-05 17:21 | 35.53385 | 24.14880 | 494 ft | 24 kts | 111° |
| 2026-05-05 17:21 | 35.53320 | 24.15083 | 489 ft | 27 kts | 111° |
| 2026-05-05 17:22 | 35.53166 | 24.15554 | 493 ft | 30 kts | 111° |
| 2026-05-05 17:22 | 35.53088 | 24.15792 | 488 ft | 30 kts | 112° |
| 2026-05-05 17:22 | 35.53008 | 24.16040 | 495 ft | 30 kts | 111° |
| 2026-05-05 17:22 | 35.52928 | 24.16285 | 491 ft | 32 kts | 112° |
| 2026-05-05 17:23 | 35.52851 | 24.16522 | 493 ft | 30 kts | 111° |
| 2026-05-05 17:23 | 35.52775 | 24.16755 | 494 ft | 28 kts | 112° |
| 2026-05-05 17:23 | 35.52711 | 24.16882 | 495 ft | 3 kts | 193° |
| 2026-05-05 17:23 | 35.52701 | 24.16876 | 493 ft | 3 kts | 203° |
| 2026-05-05 17:24 | 35.52674 | 24.16862 | 492 ft | 6 kts | 203° |
| 2026-05-05 17:24 | 35.52629 | 24.16839 | 496 ft | 8 kts | 203° |
| 2026-05-05 17:24 | 35.52584 | 24.16784 | 494 ft | 11 kts | 275° |
| 2026-05-05 17:24 | 35.52618 | 24.16676 | 491 ft | 21 kts | 292° |
| 2026-05-05 17:25 | 35.52768 | 24.16213 | 490 ft | 94 kts | 292° |
| 2026-05-05 17:25 | 35.52963 | 24.15612 | 487 ft | 133 kts | 291° |
| 2026-05-05 17:25 | 35.53482 | 24.13986 | 1065 ft | 155 kts | 291° |
| 2026-05-05 17:25 | 35.53882 | 24.12773 | 1874 ft | 155 kts | 292° |
| 2026-05-05 17:26 | 35.54313 | 24.11474 | 2328 ft | 175 kts | 292° |
| 2026-05-05 17:26 | 35.54805 | 24.09994 | 2689 ft | 199 kts | 292° |
| 2026-05-05 17:26 | 35.55377 | 24.08382 | 3246 ft | 212 kts | 301° |
| 2026-05-05 17:26 | 35.56476 | 24.07172 | 4065 ft | 219 kts | 336° |
| 2026-05-05 17:27 | 35.57972 | 24.06939 | 5029 ft | 221 kts | 6° |
| 2026-05-05 17:27 | 35.59496 | 24.07174 | 6005 ft | 221 kts | 8° |
| 2026-05-05 17:27 | 35.61017 | 24.07421 | 6989 ft | 220 kts | 7° |
| 2026-05-05 17:27 | 35.62532 | 24.07345 | 7921 ft | 223 kts | 347° |
| 2026-05-05 17:28 | 35.63966 | 24.06539 | 8704 ft | 238 kts | 327° |
| 2026-05-05 17:28 | 35.65355 | 24.05248 | 9173 ft | 263 kts | 324° |
| 2026-05-05 17:28 | 35.66836 | 24.03829 | 9917 ft | 274 kts | 324° |
| 2026-05-05 17:28 | 35.68368 | 24.02351 | 10536 ft | 290 kts | 324° |
| 2026-05-05 17:29 | 35.70022 | 24.00760 | 10888 ft | 312 kts | 323° |
| 2026-05-05 17:29 | 35.71760 | 23.99089 | 11573 ft | 320 kts | 323° |
| 2026-05-05 17:29 | 35.73548 | 23.97434 | 12377 ft | 324 kts | 329° |
| 2026-05-05 17:29 | 35.75607 | 23.96276 | 13169 ft | 328 kts | 338° |
| 2026-05-05 17:30 | 35.77747 | 23.95247 | 13971 ft | 332 kts | 338° |
| 2026-05-05 17:30 | 35.79912 | 23.94218 | 14682 ft | 335 kts | 338° |
| 2026-05-05 17:30 | 35.82087 | 23.93186 | 15418 ft | 337 kts | 338° |
| 2026-05-05 17:30 | 35.84281 | 23.92146 | 16166 ft | 339 kts | 338° |
| 2026-05-05 17:31 | 35.86486 | 23.91099 | 16909 ft | 340 kts | 338° |
| 2026-05-05 17:31 | 35.88699 | 23.90045 | 17658 ft | 342 kts | 338° |
| 2026-05-05 17:31 | 35.90925 | 23.88982 | 18398 ft | 344 kts | 338° |
| 2026-05-05 17:31 | 35.93164 | 23.87910 | 19050 ft | 346 kts | 338° |
| 2026-05-05 17:32 | 35.95418 | 23.86831 | 19719 ft | 348 kts | 338° |
| 2026-05-05 17:32 | 35.97683 | 23.85746 | 20391 ft | 350 kts | 337° |
| 2026-05-05 17:32 | 35.99958 | 23.84656 | 21038 ft | 352 kts | 337° |
| 2026-05-05 17:32 | 36.02249 | 23.83556 | 21672 ft | 354 kts | 337° |
| 2026-05-05 17:33 | 36.04550 | 23.82450 | 22289 ft | 356 kts | 337° |
| 2026-05-05 17:33 | 36.06861 | 23.81340 | 22894 ft | 358 kts | 337° |
| 2026-05-05 17:33 | 36.09190 | 23.80223 | 23488 ft | 360 kts | 337° |
| 2026-05-05 17:33 | 36.11537 | 23.79096 | 24013 ft | 362 kts | 337° |
| 2026-05-05 17:34 | 36.13893 | 23.77964 | 24509 ft | 364 kts | 337° |
| 2026-05-05 17:34 | 36.16258 | 23.76827 | 25007 ft | 366 kts | 337° |
| 2026-05-05 17:34 | 36.18637 | 23.75680 | 25478 ft | 368 kts | 337° |
| 2026-05-05 17:34 | 36.21035 | 23.74524 | 25930 ft | 371 kts | 337° |
| 2026-05-05 17:35 | 36.22626 | 23.73756 | 26031 ft | 371 kts | 337° |
| 2026-05-05 17:35 | 36.25010 | 23.72607 | 26080 ft | 364 kts | 337° |
| 2026-05-05 17:35 | 36.27364 | 23.71474 | 26084 ft | 361 kts | 337° |
| 2026-05-05 17:35 | 36.29701 | 23.70350 | 26084 ft | 360 kts | 337° |
| 2026-05-05 17:36 | 36.32035 | 23.69224 | 26084 ft | 360 kts | 337° |
| 2026-05-05 17:36 | 36.34367 | 23.68096 | 26086 ft | 360 kts | 337° |
| 2026-05-05 17:36 | 36.36699 | 23.66968 | 26086 ft | 360 kts | 337° |
| 2026-05-05 17:36 | 36.39032 | 23.65836 | 26086 ft | 360 kts | 337° |
| 2026-05-05 17:37 | 36.41363 | 23.64704 | 26081 ft | 360 kts | 337° |
| 2026-05-05 17:37 | 36.43692 | 23.63572 | 26079 ft | 360 kts | 337° |
| 2026-05-05 17:37 | 36.46021 | 23.62442 | 26081 ft | 360 kts | 337° |
| 2026-05-05 17:37 | 36.48359 | 23.61305 | 26100 ft | 360 kts | 337° |
| 2026-05-05 17:38 | 36.50691 | 23.60170 | 26100 ft | 360 kts | 337° |
| 2026-05-05 17:38 | 36.53022 | 23.59035 | 26098 ft | 360 kts | 337° |
| 2026-05-05 17:38 | 36.55352 | 23.57902 | 26100 ft | 360 kts | 337° |
| 2026-05-05 17:38 | 36.57682 | 23.56768 | 26099 ft | 360 kts | 337° |
| 2026-05-05 17:39 | 36.60016 | 23.55635 | 26097 ft | 360 kts | 337° |
| 2026-05-05 17:39 | 36.62347 | 23.54507 | 26094 ft | 360 kts | 338° |
| 2026-05-05 17:39 | 36.64799 | 23.53842 | 26084 ft | 367 kts | 353° |
| 2026-05-05 17:39 | 36.67374 | 23.54044 | 25513 ft | 371 kts | 2° |
| 2026-05-05 17:40 | 36.69932 | 23.54488 | 24799 ft | 369 kts | 4° |
| 2026-05-05 17:40 | 36.72430 | 23.54986 | 24524 ft | 360 kts | 4° |
| 2026-05-05 17:40 | 36.74892 | 23.55497 | 24117 ft | 356 kts | 4° |
| 2026-05-05 17:40 | 36.77323 | 23.55997 | 23703 ft | 353 kts | 4° |
| 2026-05-05 17:41 | 36.79735 | 23.56480 | 23229 ft | 348 kts | 4° |
| 2026-05-05 17:41 | 36.82082 | 23.56937 | 22818 ft | 343 kts | 4° |
| 2026-05-05 17:41 | 36.84456 | 23.57390 | 22390 ft | 338 kts | 4° |
| 2026-05-05 17:41 | 36.86766 | 23.57830 | 21978 ft | 333 kts | 4° |
| 2026-05-05 17:42 | 36.89044 | 23.58265 | 21552 ft | 329 kts | 4° |
| 2026-05-05 17:42 | 36.91265 | 23.58687 | 21137 ft | 326 kts | 4° |
| 2026-05-05 17:42 | 36.93497 | 23.59114 | 20712 ft | 323 kts | 4° |
| 2026-05-05 17:42 | 36.95714 | 23.59541 | 20271 ft | 321 kts | 4° |
| 2026-05-05 17:43 | 36.97917 | 23.59967 | 19849 ft | 319 kts | 4° |
| 2026-05-05 17:43 | 37.00109 | 23.60391 | 19417 ft | 318 kts | 5° |
| 2026-05-05 17:43 | 37.02287 | 23.60811 | 18985 ft | 316 kts | 5° |
| 2026-05-05 17:43 | 37.04459 | 23.61227 | 18555 ft | 315 kts | 5° |
| 2026-05-05 17:44 | 37.06624 | 23.61640 | 18089 ft | 315 kts | 5° |
| 2026-05-05 17:44 | 37.08782 | 23.62052 | 17641 ft | 313 kts | 5° |
| 2026-05-05 17:44 | 37.10924 | 23.62465 | 17213 ft | 311 kts | 6° |
| 2026-05-05 17:44 | 37.13056 | 23.62877 | 16782 ft | 309 kts | 6° |
| 2026-05-05 17:45 | 37.15178 | 23.63285 | 16355 ft | 308 kts | 6° |
| 2026-05-05 17:45 | 37.17289 | 23.63691 | 15925 ft | 307 kts | 7° |
| 2026-05-05 17:45 | 37.19393 | 23.64099 | 15499 ft | 306 kts | 7° |
| 2026-05-05 17:45 | 37.21492 | 23.64506 | 15073 ft | 305 kts | 7° |
| 2026-05-05 17:46 | 37.23585 | 23.64913 | 14648 ft | 305 kts | 7° |
| 2026-05-05 17:46 | 37.25679 | 23.65322 | 14218 ft | 304 kts | 8° |
| 2026-05-05 17:46 | 37.27775 | 23.65732 | 13779 ft | 305 kts | 8° |
| 2026-05-05 17:46 | 37.29869 | 23.66139 | 13318 ft | 304 kts | 8° |
| 2026-05-05 17:47 | 37.31949 | 23.66543 | 12893 ft | 302 kts | 8° |
| 2026-05-05 17:47 | 37.34021 | 23.66944 | 12469 ft | 300 kts | 8° |
| 2026-05-05 17:47 | 37.36082 | 23.67342 | 12050 ft | 299 kts | 8° |
| 2026-05-05 17:47 | 37.38133 | 23.67739 | 11628 ft | 298 kts | 8° |
| 2026-05-05 17:48 | 37.40177 | 23.68136 | 11211 ft | 296 kts | 8° |
| 2026-05-05 17:48 | 37.42207 | 23.68532 | 10802 ft | 295 kts | 8° |
| 2026-05-05 17:48 | 37.44220 | 23.68926 | 10392 ft | 294 kts | 7° |
| 2026-05-05 17:48 | 37.46222 | 23.69317 | 10152 ft | 281 kts | 7° |
| 2026-05-05 17:49 | 37.48124 | 23.69690 | 9668 ft | 275 kts | 7° |
| 2026-05-05 17:49 | 37.49994 | 23.70056 | 9505 ft | 270 kts | 7° |
| 2026-05-05 17:49 | 37.51848 | 23.70416 | 9371 ft | 269 kts | 7° |
| 2026-05-05 17:49 | 37.53723 | 23.70779 | 8872 ft | 274 kts | 7° |
| 2026-05-05 17:50 | 37.55592 | 23.71140 | 8560 ft | 269 kts | 7° |
| 2026-05-05 17:50 | 37.57437 | 23.71497 | 7887 ft | 268 kts | 7° |
| 2026-05-05 17:50 | 37.59281 | 23.71856 | 7203 ft | 268 kts | 8° |
| 2026-05-05 17:50 | 37.61116 | 23.72215 | 6552 ft | 267 kts | 8° |
| 2026-05-05 17:51 | 37.62953 | 23.72575 | 5845 ft | 267 kts | 8° |
| 2026-05-05 17:51 | 37.64778 | 23.72933 | 5229 ft | 264 kts | 8° |
| 2026-05-05 17:51 | 37.66590 | 23.73287 | 4640 ft | 265 kts | 8° |
| 2026-05-05 17:51 | 37.68439 | 23.73648 | 4423 ft | 259 kts | 8° |
| 2026-05-05 17:52 | 37.70152 | 23.73986 | 4365 ft | 247 kts | 8° |
| 2026-05-05 17:52 | 37.71807 | 23.74313 | 4289 ft | 233 kts | 7° |
| 2026-05-05 17:52 | 37.73328 | 23.74669 | 4201 ft | 213 kts | 15° |
| 2026-05-05 17:52 | 37.74617 | 23.75405 | 4114 ft | 196 kts | 29° |
| 2026-05-05 17:53 | 37.75727 | 23.76354 | 4035 ft | 190 kts | 33° |
| 2026-05-05 17:53 | 37.76791 | 23.77340 | 3956 ft | 190 kts | 34° |
| 2026-05-05 17:53 | 37.77832 | 23.78319 | 3773 ft | 189 kts | 34° |
| 2026-05-05 17:53 | 37.78884 | 23.79312 | 3538 ft | 188 kts | 34° |
| 2026-05-05 17:54 | 37.79929 | 23.80301 | 3317 ft | 186 kts | 35° |
| 2026-05-05 17:54 | 37.80948 | 23.81265 | 3060 ft | 180 kts | 35° |
| 2026-05-05 17:54 | 37.81939 | 23.82203 | 2812 ft | 176 kts | 35° |
| 2026-05-05 17:54 | 37.82904 | 23.83117 | 2585 ft | 171 kts | 36° |
| 2026-05-05 17:55 | 37.83848 | 23.84010 | 2365 ft | 166 kts | 35° |
| 2026-05-05 17:55 | 37.84746 | 23.84862 | 2149 ft | 156 kts | 35° |
| 2026-05-05 17:55 | 37.85598 | 23.85669 | 1953 ft | 150 kts | 36° |
| 2026-05-05 17:55 | 37.86425 | 23.86453 | 1760 ft | 147 kts | 36° |
| 2026-05-05 17:56 | 37.87244 | 23.87229 | 1554 ft | 147 kts | 36° |
| 2026-05-05 17:56 | 37.88051 | 23.87994 | 1384 ft | 143 kts | 36° |
| 2026-05-05 17:56 | 37.88835 | 23.88738 | 1177 ft | 140 kts | 36° |
| 2026-05-05 17:56 | 37.89605 | 23.89469 | 995 ft | 137 kts | 37° |
| 2026-05-05 17:57 | 37.90359 | 23.90181 | 754 ft | 134 kts | 36° |
| 2026-05-05 17:57 | 37.91122 | 23.90904 | 787 ft | 147 kts | 37° |
| 2026-05-05 17:57 | 37.91949 | 23.91691 | 1597 ft | 152 kts | 36° |
| 2026-05-05 17:57 | 37.92848 | 23.92559 | 2115 ft | 170 kts | 37° |
| 2026-05-05 17:58 | 37.93825 | 23.93517 | 2438 ft | 187 kts | 36° |
| 2026-05-05 17:58 | 37.94897 | 23.94541 | 2805 ft | 200 kts | 36° |
| 2026-05-05 17:58 | 37.96020 | 23.95609 | 3416 ft | 203 kts | 35° |
| 2026-05-05 17:58 | 37.97148 | 23.96683 | 4195 ft | 202 kts | 35° |
| 2026-05-05 17:59 | 37.98269 | 23.97753 | 4835 ft | 205 kts | 34° |
| 2026-05-05 17:59 | 37.99394 | 23.98844 | 4975 ft | 203 kts | 38° |
| 2026-05-05 17:59 | 38.00149 | 24.00352 | 5008 ft | 209 kts | 73° |
| 2026-05-05 17:59 | 38.00059 | 24.02198 | 5010 ft | 217 kts | 109° |
| 2026-05-05 18:00 | 37.99139 | 24.03710 | 5016 ft | 221 kts | 139° |
| 2026-05-05 18:00 | 37.97889 | 24.04862 | 5015 ft | 223 kts | 144° |
| 2026-05-05 18:00 | 37.96499 | 24.06037 | 5004 ft | 261 kts | 147° |
| 2026-05-05 18:00 | 37.94730 | 24.06867 | 5010 ft | 281 kts | 174° |
| 2026-05-05 18:01 | 37.92761 | 24.06867 | 5012 ft | 284 kts | 184° |
| 2026-05-05 18:01 | 37.90787 | 24.06705 | 5009 ft | 283 kts | 185° |
| 2026-05-05 18:01 | 37.88827 | 24.06497 | 5009 ft | 282 kts | 189° |
| 2026-05-05 18:01 | 37.87008 | 24.05664 | 4897 ft | 277 kts | 211° |
| 2026-05-05 18:02 | 37.85374 | 24.04384 | 4611 ft | 274 kts | 215° |
| 2026-05-05 18:02 | 37.83819 | 24.03095 | 4479 ft | 258 kts | 215° |
| 2026-05-05 18:02 | 37.82383 | 24.01898 | 4343 ft | 237 kts | 215° |
| 2026-05-05 18:02 | 37.81052 | 24.00787 | 4167 ft | 224 kts | 215° |
| 2026-05-05 18:03 | 37.79768 | 23.99719 | 4033 ft | 217 kts | 215° |
| 2026-05-05 18:03 | 37.78529 | 23.98690 | 4007 ft | 211 kts | 215° |
| 2026-05-05 18:03 | 37.77309 | 23.97654 | 4003 ft | 211 kts | 221° |
| 2026-05-05 18:03 | 37.76462 | 23.96202 | 4020 ft | 206 kts | 249° |
| 2026-05-05 18:04 | 37.75987 | 23.94576 | 4007 ft | 195 kts | 255° |
| 2026-05-05 18:04 | 37.75575 | 23.92957 | 4016 ft | 193 kts | 255° |
| 2026-05-05 18:04 | 37.75176 | 23.91356 | 3902 ft | 189 kts | 255° |
| 2026-05-05 18:04 | 37.74784 | 23.89772 | 3543 ft | 189 kts | 255° |
| 2026-05-05 18:05 | 37.74398 | 23.88177 | 3302 ft | 189 kts | 255° |
| 2026-05-05 18:05 | 37.74020 | 23.86597 | 3106 ft | 187 kts | 255° |
| 2026-05-05 18:05 | 37.73848 | 23.85001 | 3014 ft | 183 kts | 282° |
| 2026-05-05 18:05 | 37.74240 | 23.83474 | 3015 ft | 183 kts | 293° |
| 2026-05-05 18:06 | 37.74753 | 23.82001 | 3011 ft | 183 kts | 295° |
| 2026-05-05 18:06 | 37.75112 | 23.81012 | 3010 ft | 183 kts | 295° |
| 2026-05-05 18:06 | 37.75837 | 23.79084 | 3006 ft | 184 kts | 303° |
| 2026-05-05 18:06 | 37.76822 | 23.78132 | 3000 ft | 184 kts | 349° |
| 2026-05-05 18:07 | 37.78044 | 23.78464 | 3011 ft | 187 kts | 35° |
| 2026-05-05 18:07 | 37.79060 | 23.79509 | 3017 ft | 188 kts | 35° |
| 2026-05-05 18:07 | 37.80114 | 23.80491 | 3012 ft | 188 kts | 35° |
| 2026-05-05 18:07 | 37.81168 | 23.81477 | 2934 ft | 189 kts | 35° |
| 2026-05-05 18:08 | 37.82217 | 23.82467 | 2743 ft | 188 kts | 36° |
| 2026-05-05 18:08 | 37.83265 | 23.83459 | 2503 ft | 188 kts | 36° |
| 2026-05-05 18:08 | 37.84311 | 23.84450 | 2281 ft | 188 kts | 36° |
| 2026-05-05 18:08 | 37.85351 | 23.85435 | 2017 ft | 184 kts | 36° |
| 2026-05-05 18:09 | 37.86344 | 23.86377 | 1767 ft | 172 kts | 36° |
| 2026-05-05 18:09 | 37.87252 | 23.87238 | 1556 ft | 154 kts | 36° |
| 2026-05-05 18:09 | 37.88075 | 23.88018 | 1361 ft | 143 kts | 37° |
| 2026-05-05 18:09 | 37.88858 | 23.88761 | 1166 ft | 139 kts | 36° |
| 2026-05-05 18:10 | 37.89624 | 23.89489 | 981 ft | 136 kts | 36° |
| 2026-05-05 18:10 | 37.90373 | 23.90200 | 804 ft | 134 kts | 36° |
| 2026-05-05 18:10 | 37.91112 | 23.90902 | 630 ft | 132 kts | 36° |
| 2026-05-05 18:10 | 37.91841 | 23.91598 | 428 ft | 130 kts | 37° |
| 2026-05-05 18:11 | 37.92557 | 23.92279 | 314 ft | 128 kts | 36° |
| 2026-05-05 18:11 | 37.93176 | 23.92868 | 292 ft | 90 kts | 37° |
| 2026-05-05 18:11 | 37.93586 | 23.93256 | 291 ft | 65 kts | 37° |
| 2026-05-05 18:11 | 37.93912 | 23.93565 | 294 ft | 55 kts | 37° |
| 2026-05-05 18:12 | 37.94164 | 23.93817 | 299 ft | 33 kts | 47° |
| 2026-05-05 18:12 | 37.94264 | 23.94030 | 304 ft | 26 kts | 67° |
| 2026-05-05 18:12 | 37.94341 | 23.94244 | 302 ft | 27 kts | 53° |
| 2026-05-05 18:12 | 37.94495 | 23.94397 | 303 ft | 29 kts | 37° |
| 2026-05-05 18:13 | 37.94653 | 23.94546 | 305 ft | 21 kts | 37° |
| 2026-05-05 18:13 | 37.94645 | 23.94692 | 302 ft | 21 kts | 127° |
| 2026-05-05 18:13 | 37.94549 | 23.94854 | 301 ft | 25 kts | 128° |
| 2026-05-05 18:13 | 37.94438 | 23.95042 | 303 ft | 28 kts | 126° |
| 2026-05-05 18:14 | 37.94311 | 23.95253 | 301 ft | 32 kts | 127° |
| 2026-05-05 18:14 | 37.94179 | 23.95477 | 302 ft | 32 kts | 126° |
| 2026-05-05 18:14 | 37.94070 | 23.95537 | 299 ft | 18 kts | 212° |
| 2026-05-05 18:14 | 37.93962 | 23.95434 | 300 ft | 21 kts | 216° |
| 2026-05-05 18:15 | 37.93874 | 23.95272 | 302 ft | 24 kts | 250° |
| 2026-05-05 18:15 | 37.93770 | 23.95122 | 301 ft | 17 kts | 216° |
| 2026-05-05 18:15 | 37.93707 | 23.95048 | 301 ft | 9 kts | 261° |
| 2026-05-05 18:15 | 37.93738 | 23.94991 | 301 ft | 4 kts | 308° |
| 2026-05-05 18:16 | 37.93749 | 23.94972 | 301 ft | 1 kts | 306° |
| 2026-05-05 18:16 | 37.93750 | 23.94971 | 302 ft | 0 kts | 306° |